Time;durP1;ratioP1;P1;durP2;ratioP2;P2;SDS_P1;SDS_P2;PMS_P1;PMS_P2;Temp;Humidity;BMP_temperature;BMP_pressure;BME280_temperature;BME280_humidity;BME280_pressure;Samples;Min_cycle;Max_cycle;Signal;HPM_P1;HPM_P2
2021/09/19 00:02:18;;;;;;;6.87;5.83;;;16.30;1.00;;;;;;5007364;28;20305;-50
2021/09/19 00:04:45;;;;;;;6.70;5.80;;;16.20;1.00;;;;;;5006356;28;20652;-50
2021/09/19 00:07:12;;;;;;;8.70;6.03;;;16.20;1.00;;;;;;5005159;28;20242;-50
2021/09/19 00:09:39;;;;;;;5.80;5.10;;;16.20;1.00;;;;;;5001177;28;20240;-50
2021/09/19 00:12:06;;;;;;;5.83;5.23;;;16.10;1.00;;;;;;5004483;28;20522;-50
2021/09/19 00:14:34;;;;;;;6.00;5.27;;;16.20;1.00;;;;;;5010197;28;20356;-50
2021/09/19 00:17:01;;;;;;;6.63;5.93;;;16.20;1.00;;;;;;5005444;28;20393;-50
2021/09/19 00:19:29;;;;;;;6.53;5.93;;;16.00;1.00;;;;;;5011927;28;20292;-51
2021/09/19 00:21:55;;;;;;;6.17;5.57;;;15.90;99.90;;;;;;5007297;28;20289;-53
2021/09/19 00:24:23;;;;;;;8.33;5.53;;;16.00;99.90;;;;;;5002486;28;20314;-51
2021/09/19 00:26:50;;;;;;;6.17;5.40;;;15.90;99.90;;;;;;5004274;28;20448;-51
2021/09/19 00:29:17;;;;;;;6.37;5.77;;;15.80;99.90;;;;;;5017994;28;20226;-51
2021/09/19 00:31:44;;;;;;;6.37;5.80;;;15.80;99.90;;;;;;5007161;28;20220;-51
2021/09/19 00:34:11;;;;;;;6.27;5.67;;;15.80;99.90;;;;;;5007041;28;20248;-51
2021/09/19 00:36:38;;;;;;;8.10;6.40;;;15.80;99.90;;;;;;4991701;28;20719;-53
2021/09/19 00:39:05;;;;;;;7.40;6.13;;;15.80;99.90;;;;;;4995807;28;20228;-51
2021/09/19 00:41:31;;;;;;;9.03;5.47;;;15.80;99.90;;;;;;5003132;28;20298;-51
2021/09/19 00:44:02;;;;;;;6.70;6.00;;;15.60;99.90;;;;;;5006697;28;20695;-50
2021/09/19 00:46:29;;;;;;;5.83;5.23;;;15.60;99.90;;;;;;4999428;28;20716;-51
2021/09/19 00:48:56;;;;;;;7.13;5.73;;;15.60;99.90;;;;;;5006565;28;20217;-51
2021/09/19 00:51:23;;;;;;;6.60;6.00;;;15.50;99.90;;;;;;5004132;28;20631;-51
2021/09/19 00:53:51;;;;;;;6.43;5.70;;;15.50;99.90;;;;;;5005481;28;20290;-51
2021/09/19 00:56:24;;;;;;;7.60;6.07;;;15.50;99.90;;;;;;5005784;28;20316;-51
2021/09/19 00:58:53;;;;;;;6.00;5.40;;;15.40;99.90;;;;;;5010325;28;20655;-51
2021/09/19 01:01:21;;;;;;;6.80;6.00;;;15.40;99.90;;;;;;5003052;28;20281;-51
2021/09/19 01:03:48;;;;;;;7.07;6.37;;;15.50;99.90;;;;;;5007059;28;20310;-51
2021/09/19 01:06:16;;;;;;;7.47;6.03;;;15.50;99.90;;;;;;5001819;28;20556;-51
2021/09/19 01:08:44;;;;;;;7.10;6.40;;;15.50;99.90;;;;;;5004153;28;20208;-51
2021/09/19 01:11:13;;;;;;;6.47;5.80;;;15.50;99.90;;;;;;5006002;28;20398;-51
2021/09/19 01:13:42;;;;;;;6.93;6.00;;;15.50;99.90;;;;;;5007169;28;20285;-51
2021/09/19 01:16:10;;;;;;;8.00;6.33;;;15.60;99.90;;;;;;5002846;28;20599;-51
2021/09/19 01:18:40;;;;;;;8.13;6.10;;;15.60;99.90;;;;;;5003084;28;20230;-50
2021/09/19 01:21:08;;;;;;;8.73;6.70;;;15.50;99.90;;;;;;5007279;28;20544;-51
2021/09/19 01:23:37;;;;;;;9.30;6.60;;;15.50;99.90;;;;;;5004908;28;20210;-53
2021/09/19 01:26:05;;;;;;;9.80;7.07;;;15.30;99.90;;;;;;5001748;28;20277;-51
2021/09/19 01:28:33;;;;;;;10.53;6.50;;;15.30;99.90;;;;;;5008406;28;20597;-51
2021/09/19 01:31:00;;;;;;;7.47;6.77;;;15.30;99.90;;;;;;5007627;28;20579;-50
2021/09/19 01:33:27;;;;;;;7.80;6.90;;;15.30;99.90;;;;;;5002066;28;20294;-51
2021/09/19 01:35:58;;;;;;;8.37;6.83;;;15.30;99.90;;;;;;5004875;28;20302;-51
2021/09/19 01:38:25;;;;;;;6.90;6.20;;;15.30;99.90;;;;;;5007918;28;20206;-51
2021/09/19 01:40:52;;;;;;;6.70;6.00;;;15.40;99.90;;;;;;5006681;28;20369;-50
2021/09/19 01:43:18;;;;;;;6.97;6.27;;;15.40;99.90;;;;;;5010579;28;20265;-50
2021/09/19 01:45:45;;;;;;;7.10;6.40;;;15.30;99.90;;;;;;5006954;28;21721;-51
2021/09/19 01:48:12;;;;;;;9.00;6.53;;;15.40;99.90;;;;;;5008379;28;20228;-51
2021/09/19 01:50:39;;;;;;;7.47;6.60;;;15.30;99.90;;;;;;5013478;28;20409;-51
2021/09/19 01:53:06;;;;;;;7.73;7.00;;;15.30;99.90;;;;;;5005914;28;20704;-53
2021/09/19 01:55:33;;;;;;;7.50;6.50;;;15.30;99.90;;;;;;5011796;28;20220;-50
2021/09/19 01:58:00;;;;;;;6.90;6.20;;;15.30;99.90;;;;;;5008390;28;20205;-51
2021/09/19 02:00:27;;;;;;;10.03;6.93;;;15.30;99.90;;;;;;5011611;28;20236;-50
2021/09/19 02:02:54;;;;;;;8.40;6.90;;;15.20;99.90;;;;;;5006736;28;20295;-51
2021/09/19 02:05:22;;;;;;;7.07;6.03;;;15.10;99.90;;;;;;5013585;28;20288;-51
2021/09/19 02:07:48;;;;;;;8.87;6.50;;;15.20;99.90;;;;;;5010235;28;21546;-51
2021/09/19 02:10:16;;;;;;;7.03;6.27;;;15.20;99.90;;;;;;5013379;28;20864;-53
2021/09/19 02:12:43;;;;;;;7.57;6.77;;;15.20;99.90;;;;;;5022926;28;20237;-51
2021/09/19 02:15:11;;;;;;;7.57;6.73;;;15.30;99.90;;;;;;5012088;28;20293;-50
2021/09/19 02:17:39;;;;;;;7.50;6.77;;;15.20;99.90;;;;;;5008618;28;20793;-51
2021/09/19 02:20:08;;;;;;;6.90;6.20;;;15.10;99.90;;;;;;5009623;28;20244;-50
2021/09/19 02:22:35;;;;;;;6.63;6.03;;;15.10;99.90;;;;;;5010614;28;20233;-50
2021/09/19 02:25:03;;;;;;;7.37;6.67;;;15.10;99.90;;;;;;5003653;28;20297;-50
2021/09/19 02:27:30;;;;;;;7.63;6.93;;;15.10;99.90;;;;;;5011806;28;20355;-50
2021/09/19 02:29:57;;;;;;;6.70;6.10;;;15.20;99.90;;;;;;5010646;28;20663;-52
2021/09/19 02:32:24;;;;;;;8.83;6.53;;;15.20;99.90;;;;;;5008122;28;20250;-50
2021/09/19 02:34:51;;;;;;;6.93;6.33;;;15.20;99.90;;;;;;5014014;28;20226;-50
2021/09/19 02:37:18;;;;;;;6.80;6.10;;;15.10;99.90;;;;;;5014015;28;20198;-50
2021/09/19 02:39:44;;;;;;;8.47;6.90;;;15.00;99.90;;;;;;5008219;28;20301;-50
2021/09/19 02:42:11;;;;;;;7.67;6.93;;;15.10;99.90;;;;;;5007849;28;20586;-50
2021/09/19 02:44:38;;;;;;;7.27;6.57;;;15.10;99.90;;;;;;5010126;28;20626;-51
2021/09/19 02:47:05;;;;;;;7.70;6.90;;;15.10;99.90;;;;;;5008755;28;20294;-51
2021/09/19 02:49:31;;;;;;;8.33;6.87;;;15.10;99.90;;;;;;5009980;28;20611;-51
2021/09/19 02:51:58;;;;;;;7.77;6.97;;;15.10;99.90;;;;;;5006334;28;20605;-51
2021/09/19 02:54:25;;;;;;;7.03;6.33;;;15.10;99.90;;;;;;5020295;28;20222;-51
2021/09/19 02:56:52;;;;;;;8.73;7.70;;;15.10;99.90;;;;;;5006884;28;20244;-51
2021/09/19 02:59:19;;;;;;;7.53;6.37;;;15.10;99.90;;;;;;4998535;28;20230;-51
2021/09/19 03:01:46;;;;;;;8.90;6.70;;;15.10;99.90;;;;;;5009794;28;20237;-51
2021/09/19 03:04:13;;;;;;;8.40;6.47;;;15.00;99.90;;;;;;5008975;28;20272;-51
2021/09/19 03:06:40;;;;;;;7.73;6.50;;;15.00;99.90;;;;;;5013577;28;20214;-50
2021/09/19 03:09:07;;;;;;;7.17;6.47;;;14.90;99.90;;;;;;5010094;28;20287;-50
2021/09/19 03:11:34;;;;;;;7.83;7.03;;;15.00;99.90;;;;;;5005464;28;20288;-50
2021/09/19 03:14:00;;;;;;;7.37;6.67;;;14.90;99.90;;;;;;5006600;28;20637;-51
2021/09/19 03:16:27;;;;;;;8.13;6.20;;;14.90;99.90;;;;;;5009424;28;20281;-51
2021/09/19 03:18:54;;;;;;;7.50;6.23;;;14.90;99.90;;;;;;5012057;28;20554;-51
2021/09/19 03:21:21;;;;;;;7.93;6.83;;;14.90;99.90;;;;;;5006758;28;20206;-50
2021/09/19 03:23:48;;;;;;;6.83;6.23;;;14.90;99.90;;;;;;5006772;28;20243;-50
2021/09/19 03:26:15;;;;;;;7.17;6.47;;;14.90;99.90;;;;;;5009391;28;20674;-50
2021/09/19 03:28:41;;;;;;;6.67;5.77;;;14.90;99.90;;;;;;5009184;28;20202;-51
2021/09/19 03:31:08;;;;;;;6.83;6.23;;;14.80;99.90;;;;;;5005709;28;20281;-51
2021/09/19 03:33:35;;;;;;;7.70;7.00;;;14.80;99.90;;;;;;5008019;28;20198;-51
2021/09/19 03:36:02;;;;;;;7.97;7.17;;;14.80;99.90;;;;;;5002933;28;20241;-50
2021/09/19 03:38:29;;;;;;;7.37;6.03;;;14.80;99.90;;;;;;5001366;28;20673;-51
2021/09/19 03:40:56;;;;;;;6.70;6.00;;;14.80;99.90;;;;;;5009280;28;20251;-51
2021/09/19 03:43:23;;;;;;;7.80;7.10;;;14.60;99.90;;;;;;5005149;28;20201;-51
2021/09/19 03:45:50;;;;;;;7.13;6.30;;;14.60;99.90;;;;;;5008544;28;20238;-50
2021/09/19 03:48:17;;;;;;;9.17;7.13;;;14.60;99.90;;;;;;5007418;28;20238;-50
2021/09/19 03:50:45;;;;;;;6.73;6.00;;;14.60;99.90;;;;;;5006734;28;20215;-50
2021/09/19 03:53:12;;;;;;;6.57;5.87;;;14.60;99.90;;;;;;5004287;28;20220;-51
2021/09/19 03:55:39;;;;;;;7.50;6.77;;;14.70;99.90;;;;;;5004811;28;20607;-51
2021/09/19 03:58:06;;;;;;;6.90;6.20;;;14.70;99.90;;;;;;5005790;28;20245;-50
2021/09/19 04:00:33;;;;;;;10.73;7.33;;;14.60;99.90;;;;;;5015638;28;20293;-50
2021/09/19 04:03:00;;;;;;;6.57;5.90;;;14.60;99.90;;;;;;5010957;28;20219;-50
2021/09/19 04:05:27;;;;;;;6.90;6.10;;;14.70;99.90;;;;;;5010140;28;20372;-50
2021/09/19 04:07:54;;;;;;;7.13;6.43;;;14.70;99.90;;;;;;5004642;28;20234;-50
2021/09/19 04:10:21;;;;;;;7.47;6.57;;;14.60;99.90;;;;;;5004151;28;20271;-51
2021/09/19 04:12:48;;;;;;;7.57;6.33;;;14.50;99.90;;;;;;5009824;28;20234;-51
2021/09/19 04:15:15;;;;;;;7.80;6.57;;;14.50;99.90;;;;;;5008123;28;20584;-50
2021/09/19 04:17:42;;;;;;;7.50;6.70;;;14.60;99.90;;;;;;5019300;28;20332;-50
2021/09/19 04:20:10;;;;;;;6.47;5.87;;;14.50;99.90;;;;;;5009759;28;20833;-51
2021/09/19 04:22:37;;;;;;;7.30;6.23;;;14.50;99.90;;;;;;5007929;28;20623;-51
2021/09/19 04:25:05;;;;;;;8.17;6.67;;;14.50;99.90;;;;;;4998210;28;20277;-51
2021/09/19 04:27:32;;;;;;;6.67;5.97;;;14.50;99.90;;;;;;5006303;28;20237;-51
2021/09/19 04:30:00;;;;;;;6.87;6.17;;;14.40;99.90;;;;;;5004681;28;20209;-51
2021/09/19 04:32:27;;;;;;;8.53;7.30;;;14.40;99.90;;;;;;5003687;28;20256;-51
2021/09/19 04:34:53;;;;;;;8.87;6.97;;;14.30;99.90;;;;;;5001173;28;21471;-51
2021/09/19 04:37:20;;;;;;;6.80;6.20;;;14.30;99.90;;;;;;5005488;28;20595;-51
2021/09/19 04:39:47;;;;;;;7.27;6.57;;;14.30;99.90;;;;;;5006195;28;20260;-50
2021/09/19 04:42:15;;;;;;;7.80;6.50;;;14.30;99.90;;;;;;5002484;28;20253;-50
2021/09/19 04:44:42;;;;;;;8.03;5.90;;;14.20;99.90;;;;;;5005568;28;20264;-50
2021/09/19 04:47:09;;;;;;;6.90;6.27;;;14.20;99.90;;;;;;5009930;28;20213;-50
2021/09/19 04:49:36;;;;;;;7.13;6.43;;;14.20;99.90;;;;;;5008400;28;20199;-50
2021/09/19 04:52:03;;;;;;;7.90;6.67;;;14.20;99.90;;;;;;5010678;28;20292;-50
2021/09/19 04:54:30;;;;;;;7.20;6.40;;;14.30;99.90;;;;;;5001543;28;20647;-50
2021/09/19 04:56:58;;;;;;;6.83;6.13;;;14.30;99.90;;;;;;5006580;28;20207;-50
2021/09/19 04:59:25;;;;;;;8.53;6.37;;;14.20;99.90;;;;;;5008618;28;20293;-51
2021/09/19 05:01:51;;;;;;;7.97;6.53;;;14.20;99.90;;;;;;5003530;28;20242;-50
2021/09/19 05:04:18;;;;;;;7.27;6.57;;;14.30;99.90;;;;;;5005666;28;20496;-51
2021/09/19 05:06:45;;;;;;;9.23;6.50;;;14.30;99.90;;;;;;5006694;28;20238;-50
2021/09/19 05:09:12;;;;;;;7.03;6.33;;;14.30;99.90;;;;;;5009343;28;20234;-50
2021/09/19 05:11:39;;;;;;;7.17;6.07;;;14.30;99.90;;;;;;5005351;28;20209;-50
2021/09/19 05:14:06;;;;;;;7.17;6.07;;;14.30;99.90;;;;;;5011762;28;20212;-52
2021/09/19 05:16:33;;;;;;;9.33;6.60;;;14.30;99.90;;;;;;5008398;28;20256;-51
2021/09/19 05:19:00;;;;;;;7.90;6.60;;;14.20;99.90;;;;;;5016580;28;20205;-51
2021/09/19 05:21:27;;;;;;;8.00;6.40;;;14.20;99.90;;;;;;5011298;28;20228;-50
2021/09/19 05:23:53;;;;;;;7.93;6.97;;;14.30;99.90;;;;;;5010704;28;20612;-51
2021/09/19 05:26:25;;;;;;;8.93;6.73;;;14.20;99.90;;;;;;5008365;28;20336;-50
2021/09/19 05:28:52;;;;;;;8.10;7.30;;;14.30;99.90;;;;;;5010548;28;20247;-51
2021/09/19 05:31:19;;;;;;;8.13;6.93;;;14.30;99.90;;;;;;5012835;28;20265;-51
2021/09/19 05:33:47;;;;;;;7.67;6.80;;;14.30;99.90;;;;;;5009164;28;20219;-51
2021/09/19 05:36:14;;;;;;;7.10;6.40;;;14.30;99.90;;;;;;5011721;28;20605;-51
2021/09/19 05:38:41;;;;;;;7.40;6.60;;;14.20;99.90;;;;;;5025109;28;20251;-50
2021/09/19 05:41:08;;;;;;;7.57;6.73;;;14.30;99.90;;;;;;5004576;28;20299;-51
2021/09/19 05:43:35;;;;;;;7.97;7.17;;;14.20;99.90;;;;;;5006290;28;20234;-51
2021/09/19 05:46:02;;;;;;;8.00;6.63;;;14.30;99.90;;;;;;5018069;28;20658;-50
2021/09/19 05:48:29;;;;;;;9.57;6.70;;;14.20;99.90;;;;;;5006700;28;20199;-50
2021/09/19 05:50:56;;;;;;;9.00;6.20;;;14.20;99.90;;;;;;5011951;28;20474;-52
2021/09/19 05:53:23;;;;;;;8.97;6.77;;;14.20;99.90;;;;;;5010554;28;20662;-50
2021/09/19 05:55:49;;;;;;;8.77;7.83;;;14.30;99.90;;;;;;5004747;28;20717;-50
2021/09/19 05:58:16;;;;;;;7.33;6.63;;;14.30;99.90;;;;;;5007775;28;20661;-50
2021/09/19 06:00:43;;;;;;;7.83;7.03;;;14.30;99.90;;;;;;5005986;28;20532;-50
2021/09/19 06:03:10;;;;;;;8.40;7.10;;;14.30;99.90;;;;;;5011426;28;20213;-50
2021/09/19 06:05:37;;;;;;;8.13;7.33;;;14.30;99.90;;;;;;5011004;28;20210;-50
2021/09/19 06:08:05;;;;;;;9.27;7.03;;;14.30;99.90;;;;;;5009285;28;21752;-50
2021/09/19 06:10:32;;;;;;;8.87;7.17;;;14.30;99.90;;;;;;5007376;28;20692;-50
2021/09/19 06:12:59;;;;;;;7.77;6.90;;;14.30;99.90;;;;;;5006989;28;20199;-50
2021/09/19 06:15:26;;;;;;;8.13;7.33;;;14.40;99.90;;;;;;5010437;28;20195;-50
2021/09/19 06:17:53;;;;;;;9.57;8.00;;;14.40;99.90;;;;;;5013793;28;20258;-50
2021/09/19 06:20:19;;;;;;;9.17;7.67;;;14.40;99.90;;;;;;5009765;28;20205;-50
2021/09/19 06:22:46;;;;;;;8.77;7.87;;;14.40;99.90;;;;;;5014872;28;20234;-52
2021/09/19 06:25:13;;;;;;;7.77;6.97;;;14.50;99.90;;;;;;5004763;28;20293;-50
2021/09/19 06:27:40;;;;;;;8.20;7.40;;;14.50;99.90;;;;;;5007667;28;20373;-50
2021/09/19 06:30:09;;;;;;;8.73;7.83;;;14.50;99.90;;;;;;5010256;28;20511;-51
2021/09/19 06:32:36;;;;;;;9.03;7.97;;;14.50;99.90;;;;;;4994297;28;20316;-51
2021/09/19 06:35:04;;;;;;;10.87;8.23;;;14.60;99.90;;;;;;4995748;28;20622;-51
2021/09/19 06:37:30;;;;;;;10.17;7.30;;;14.30;99.90;;;;;;4994370;28;20653;-51
2021/09/19 06:39:57;;;;;;;8.70;7.10;;;14.40;99.90;;;;;;4997154;28;20198;-51
2021/09/19 06:42:25;;;;;;;9.50;7.57;;;14.40;99.90;;;;;;4997584;28;20273;-51
2021/09/19 06:44:51;;;;;;;9.27;8.10;;;14.50;99.90;;;;;;4994207;28;20205;-51
2021/09/19 06:47:19;;;;;;;8.80;7.80;;;14.50;99.90;;;;;;4996585;28;20206;-51
2021/09/19 06:49:46;;;;;;;9.17;7.80;;;14.60;99.90;;;;;;4996327;28;20236;-51
2021/09/19 06:52:13;;;;;;;9.47;8.47;;;14.60;99.90;;;;;;4996484;28;20246;-51
2021/09/19 06:54:42;;;;;;;9.47;8.03;;;14.70;99.90;;;;;;4991644;28;20293;-51
2021/09/19 06:57:10;;;;;;;9.07;8.10;;;14.70;99.90;;;;;;4994058;28;20213;-51
2021/09/19 06:59:37;;;;;;;10.03;8.17;;;14.80;99.90;;;;;;4974901;28;20628;-51
2021/09/19 07:02:04;;;;;;;9.90;8.87;;;14.80;99.90;;;;;;4997563;28;20249;-51
2021/09/19 07:04:32;;;;;;;10.77;8.07;;;14.80;99.90;;;;;;4995926;28;20791;-51
2021/09/19 07:06:58;;;;;;;9.97;8.93;;;14.90;99.90;;;;;;4995196;28;20203;-51
2021/09/19 07:09:25;;;;;;;9.07;8.13;;;15.00;99.90;;;;;;4997347;28;20242;-51
2021/09/19 07:11:52;;;;;;;9.83;8.10;;;15.00;99.90;;;;;;4998242;28;20222;-51
2021/09/19 07:14:19;;;;;;;8.87;7.90;;;15.10;99.90;;;;;;4991839;28;20286;-51
2021/09/19 07:16:46;;;;;;;13.23;8.07;;;15.20;99.90;;;;;;5008375;28;20199;-51
2021/09/19 07:19:13;;;;;;;9.03;7.90;;;15.20;99.90;;;;;;4994660;28;20520;-51
2021/09/19 07:21:40;;;;;;;10.93;8.20;;;15.30;99.90;;;;;;4996494;28;20287;-51
2021/09/19 07:24:07;;;;;;;9.43;8.30;;;15.40;99.90;;;;;;4996777;28;20364;-51
2021/09/19 07:26:34;;;;;;;9.67;8.10;;;15.40;99.90;;;;;;4994696;28;20307;-51
2021/09/19 07:29:01;;;;;;;9.53;7.57;;;15.40;99.90;;;;;;5000257;28;20659;-51
2021/09/19 07:31:28;;;;;;;7.93;7.10;;;15.50;99.90;;;;;;4995928;28;20325;-51
2021/09/19 07:33:55;;;;;;;10.07;7.83;;;15.70;99.90;;;;;;4993835;28;20698;-51
2021/09/19 07:36:27;;;;;;;8.27;7.30;;;15.70;99.90;;;;;;4994605;28;20381;-51
2021/09/19 07:38:54;;;;;;;12.00;7.83;;;15.70;99.90;;;;;;4996851;28;20745;-51
2021/09/19 07:41:21;;;;;;;9.83;7.97;;;15.80;99.90;;;;;;4993336;28;20627;-52
2021/09/19 07:43:48;;;;;;;7.77;6.97;;;16.00;99.90;;;;;;4998699;28;20241;-51
2021/09/19 07:46:17;;;;;;;8.57;7.00;;;16.10;99.90;;;;;;5008853;28;20202;-51
2021/09/19 07:48:44;;;;;;;8.23;7.23;;;16.10;99.90;;;;;;5000430;28;20209;-51
2021/09/19 07:51:12;;;;;;;9.87;7.40;;;16.30;99.90;;;;;;4999866;28;20450;-51
2021/09/19 07:53:38;;;;;;;8.53;6.77;;;16.40;99.90;;;;;;4991232;28;20282;-51
2021/09/19 07:56:05;;;;;;;5.97;5.33;;;16.50;99.90;;;;;;4985496;28;20236;-51
2021/09/19 07:58:32;;;;;;;6.70;5.97;;;16.50;99.90;;;;;;4990709;28;20673;-51
2021/09/19 08:00:59;;;;;;;6.07;5.47;;;16.60;1.00;;;;;;4994973;28;20203;-51
2021/09/19 08:03:26;;;;;;;6.57;5.80;;;16.60;1.00;;;;;;4994591;28;20641;-51
2021/09/19 08:05:53;;;;;;;8.13;6.20;;;16.80;1.00;;;;;;4995101;28;20207;-51
2021/09/19 08:08:20;;;;;;;6.73;5.60;;;17.00;1.00;;;;;;4996101;28;20210;-51
2021/09/19 08:10:47;;;;;;;6.20;5.47;;;17.10;1.00;;;;;;4990306;28;20239;-51
2021/09/19 08:13:14;;;;;;;6.33;5.27;;;17.00;1.00;;;;;;4991837;28;20311;-51
2021/09/19 08:15:41;;;;;;;5.33;4.83;;;17.20;99.90;;;;;;4992200;28;20292;-58
2021/09/19 08:18:08;;;;;;;6.40;4.60;;;17.10;1.00;;;;;;4992684;28;20228;-51
2021/09/19 08:20:35;;;;;;;6.50;4.60;;;17.30;99.90;;;;;;4992272;28;20636;-51
2021/09/19 08:23:01;;;;;;;4.77;4.37;;;17.50;99.90;;;;;;4995564;28;20287;-51
2021/09/19 08:25:28;;;;;;;5.90;4.17;;;17.70;99.90;;;;;;4991498;28;20601;-51
2021/09/19 08:27:55;;;;;;;5.00;4.23;;;17.70;1.00;;;;;;4996080;28;22072;-52
2021/09/19 08:30:22;;;;;;;5.23;4.40;;;17.90;99.90;;;;;;4992971;28;20490;-51
2021/09/19 08:32:49;;;;;;;6.83;4.50;;;17.90;99.90;;;;;;4997837;28;20311;-51
2021/09/19 08:35:16;;;;;;;4.93;4.37;;;17.70;1.00;;;;;;4997583;28;20205;-51
2021/09/19 08:37:43;;;;;;;6.67;5.07;;;17.80;1.00;;;;;;4995983;28;20217;-51
2021/09/19 08:40:11;;;;;;;5.33;4.13;;;18.00;99.90;;;;;;4993727;28;20317;-51
2021/09/19 08:42:39;;;;;;;5.33;4.50;;;17.70;1.00;;;;;;4992505;28;20303;-51
2021/09/19 08:45:08;;;;;;;6.47;4.60;;;17.60;99.90;;;;;;4992475;28;20225;-51
2021/09/19 08:47:37;;;;;;;5.20;4.70;;;17.70;1.00;;;;;;4998078;28;20567;-51
2021/09/19 08:50:08;;;;;;;5.53;5.03;;;17.90;1.00;;;;;;4998627;28;20238;-51
2021/09/19 08:52:36;;;;;;;5.90;4.60;;;17.90;91.20;;;;;;4997968;28;20216;-51
2021/09/19 08:55:06;;;;;;;5.23;4.73;;;17.90;1.00;;;;;;4993958;28;20305;-51
2021/09/19 08:57:32;;;;;;;6.17;4.80;;;17.70;99.90;;;;;;4997671;28;20233;-51
2021/09/19 09:00:10;;;;;;;7.27;5.53;;;17.70;99.90;;;;;;5002828;28;20209;-51
2021/09/19 09:02:56;;;;;;;5.27;4.73;;;17.50;99.90;;;;;;4999364;28;20284;-53
2021/09/19 09:05:29;;;;;;;6.63;4.67;;;17.60;99.90;;;;;;4999605;28;20269;-50
2021/09/19 09:07:58;;;;;;;5.90;5.27;;;17.50;3.10;;;;;;4998508;28;21090;-53
2021/09/19 09:10:44;;;;;;;7.33;5.37;;;17.50;1.00;;;;;;4998464;28;20283;-53
2021/09/19 09:13:14;;;;;;;7.07;4.90;;;18.10;99.90;;;;;;4999944;28;20315;-51
2021/09/19 09:15:42;;;;;;;6.07;5.03;;;18.20;1.00;;;;;;5002049;28;20299;-51
2021/09/19 09:18:34;;;;;;;5.50;4.47;;;18.10;1.00;;;;;;5002118;28;20241;-51
2021/09/19 09:21:10;;;;;;;6.07;4.10;;;18.50;1.00;;;;;;4997551;28;20200;-51
2021/09/19 09:23:44;;;;;;;6.47;4.77;;;18.80;1.00;;;;;;5000396;28;20693;-51
2021/09/19 09:26:31;;;;;;;5.57;4.87;;;18.80;1.00;;;;;;5000989;28;20237;-51
2021/09/19 09:29:11;;;;;;;4.33;3.90;;;18.90;1.00;;;;;;5000094;28;20213;-51
2021/09/19 09:31:40;;;;;;;4.80;4.20;;;19.30;1.00;;;;;;4998413;28;20299;-51
2021/09/19 09:34:25;;;;;;;4.50;4.03;;;19.50;99.90;;;;;;5002346;28;20713;-51
2021/09/19 09:36:57;;;;;;;6.83;4.53;;;19.40;1.00;;;;;;4998968;28;20229;-51
2021/09/19 09:39:34;;;;;;;4.93;4.27;;;19.40;1.00;;;;;;4997173;28;20302;-51
2021/09/19 09:42:08;;;;;;;7.70;4.33;;;19.10;99.90;;;;;;4994309;28;20197;-51
2021/09/19 09:44:43;;;;;;;6.37;4.50;;;19.20;1.00;;;;;;4995807;28;20668;-51
2021/09/19 09:47:13;;;;;;;4.77;4.17;;;19.30;1.00;;;;;;5000789;28;20209;-51
2021/09/19 09:50:00;;;;;;;4.80;3.87;;;19.50;99.90;;;;;;4999018;28;20286;-50
2021/09/19 09:52:30;;;;;;;5.10;4.17;;;19.40;1.00;;;;;;4996446;28;20681;-51
2021/09/19 09:55:03;;;;;;;4.87;3.77;;;19.30;1.00;;;;;;4999761;28;20229;-50
2021/09/19 09:57:35;;;;;;;3.90;3.60;;;19.30;1.00;;;;;;4999052;28;20451;-51
2021/09/19 10:00:02;;;;;;;4.53;4.10;;;19.50;1.00;;;;;;4998350;28;20198;-51
2021/09/19 10:02:30;;;;;;;4.03;3.57;;;19.30;1.00;;;;;;4999312;28;20261;-51
2021/09/19 10:04:57;;;;;;;4.00;3.60;;;19.40;1.00;;;;;;4995671;28;20276;-51
2021/09/19 10:07:25;;;;;;;8.57;5.83;;;19.40;1.00;;;;;;4995916;28;20233;-51
2021/09/19 10:09:52;;;;;;;4.47;4.00;;;19.40;1.00;;;;;;4995298;28;20255;-51
2021/09/19 10:12:21;;;;;;;4.60;4.00;;;19.40;99.90;;;;;;4994504;28;20248;-51
2021/09/19 10:14:52;;;;;;;6.33;4.33;;;19.20;1.00;;;;;;4993559;28;20251;-51
2021/09/19 10:17:20;;;;;;;6.50;4.10;;;19.20;1.00;;;;;;4997161;28;20329;-51
2021/09/19 10:19:49;;;;;;;9.33;4.43;;;19.40;1.00;;;;;;4998510;28;20206;-51
2021/09/19 10:22:31;;;;;;;4.17;3.73;;;19.70;1.00;;;;;;4993807;28;20712;-51
2021/09/19 10:24:59;;;;;;;4.67;4.07;;;19.60;99.90;;;;;;4992514;28;20197;-51
2021/09/19 10:27:32;;;;;;;5.00;3.70;;;19.80;99.90;;;;;;4996970;28;20284;-51
2021/09/19 10:30:07;;;;;;;5.50;4.20;;;19.80;1.00;;;;;;4999438;28;20224;-51
2021/09/19 10:32:44;;;;;;;5.63;3.90;;;19.90;99.90;;;;;;4993580;28;20653;-51
2021/09/19 10:35:17;;;;;;;5.53;3.90;;;20.00;1.00;;;;;;5008399;28;20310;-51
2021/09/19 10:38:04;;;;;;;4.37;3.97;;;20.10;1.00;;;;;;5010815;28;20240;-51
2021/09/19 10:40:38;;;;;;;3.77;3.20;;;20.30;1.00;;;;;;4991980;28;20261;-51
2021/09/19 10:43:14;;;;;;;4.53;3.90;;;20.30;99.90;;;;;;4997820;28;20299;-51
2021/09/19 10:45:43;;;;;;;4.23;3.83;;;20.40;24.30;;;;;;4994475;28;20272;-51
2021/09/19 10:48:11;;;;;;;4.43;3.57;;;20.50;1.00;;;;;;4997421;28;20209;-51
2021/09/19 10:50:39;;;;;;;4.87;4.17;;;20.50;1.00;;;;;;4993810;28;20302;-51
2021/09/19 10:53:21;;;;;;;5.80;3.80;;;20.40;1.00;;;;;;4994974;28;20221;-51
2021/09/19 10:55:56;;;;;;;4.53;4.07;;;20.40;99.90;;;;;;4995111;28;20344;-51
2021/09/19 10:58:37;;;;;;;4.13;3.10;;;20.50;1.00;;;;;;4996427;28;20297;-51
2021/09/19 11:01:11;;;;;;;5.27;3.50;;;20.60;99.90;;;;;;4992461;28;20699;-51
2021/09/19 11:03:44;;;;;;;3.90;3.50;;;20.70;1.00;;;;;;4998417;28;20220;-52
2021/09/19 11:06:43;;;;;;;4.43;3.90;;;20.80;99.90;;;;;;4997059;28;20214;-51
2021/09/19 11:09:35;;;;;;;4.97;3.70;;;20.70;99.90;;;;;;4989428;28;20289;-51
2021/09/19 11:12:10;;;;;;;4.43;3.23;;;20.60;1.00;;;;;;4995965;28;20213;-52
2021/09/19 11:14:56;;;;;;;4.53;3.63;;;20.60;1.00;;;;;;4994072;28;20271;-51
2021/09/19 11:17:26;;;;;;;3.53;3.20;;;20.80;1.00;;;;;;5000508;28;20264;-51
2021/09/19 11:20:12;;;;;;;3.70;3.40;;;20.90;1.00;;;;;;4994445;28;20300;-51
2021/09/19 11:22:41;;;;;;;3.47;2.80;;;20.80;1.00;;;;;;5015260;28;20199;-51
2021/09/19 11:25:10;;;;;;;2.40;2.07;;;21.00;1.00;;;;;;5003287;28;20267;-51
2021/09/19 11:27:40;;;;;;;3.70;2.83;;;21.20;1.00;;;;;;4997183;28;20269;-51
2021/09/19 11:30:08;;;;;;;3.47;3.17;;;21.30;1.00;;;;;;4998200;28;20295;-51
2021/09/19 11:32:38;;;;;;;3.50;3.20;;;21.60;1.00;;;;;;4989273;28;20280;-51
2021/09/19 11:35:08;;;;;;;7.00;2.87;;;21.40;99.90;;;;;;4993761;28;20219;-51
2021/09/19 11:37:35;;;;;;;3.57;2.23;;;21.70;1.00;;;;;;5010300;28;20258;-51
2021/09/19 11:40:09;;;;;;;2.27;2.07;;;22.00;99.90;;;;;;4992509;28;20211;-51
2021/09/19 11:42:37;;;;;;;4.10;2.67;;;22.00;25.50;;;;;;4999045;28;20633;-51
2021/09/19 11:45:09;;;;;;;2.57;2.33;;;22.10;99.90;;;;;;4999571;28;20197;-51
2021/09/19 11:47:38;;;;;;;4.10;3.07;;;22.30;63.30;;;;;;4999012;28;20285;-51
2021/09/19 11:50:07;;;;;;;3.27;2.83;;;22.40;1.00;;;;;;4993472;28;20232;-51
2021/09/19 11:52:34;;;;;;;3.13;2.87;;;22.40;1.00;;;;;;4996346;28;20220;-51
2021/09/19 11:55:01;;;;;;;3.73;2.80;;;22.40;75.80;;;;;;4996633;28;20755;-51
2021/09/19 11:57:28;;;;;;;3.17;2.63;;;22.20;65.80;;;;;;4993610;28;20342;-51
2021/09/19 11:59:54;;;;;;;3.30;3.00;;;22.40;98.50;;;;;;4999063;28;20584;-51
2021/09/19 12:02:25;;;;;;;3.37;3.00;;;22.70;1.00;;;;;;4998217;28;20529;-51
2021/09/19 12:04:54;;;;;;;5.57;3.13;;;22.60;1.00;;;;;;4989485;28;20198;-51
2021/09/19 12:07:21;;;;;;;3.33;3.03;;;22.80;1.00;;;;;;4996667;28;20593;-51
2021/09/19 12:09:50;;;;;;;3.77;3.37;;;22.70;1.00;;;;;;4996877;28;20661;-51
2021/09/19 12:12:19;;;;;;;3.27;2.97;;;23.00;1.00;;;;;;5001952;28;20228;-52
2021/09/19 12:14:48;;;;;;;4.30;3.90;;;23.00;1.00;;;;;;4997730;28;20201;-51
2021/09/19 12:17:21;;;;;;;4.63;3.27;;;23.10;1.00;;;;;;4995885;28;20233;-51
2021/09/19 12:19:48;;;;;;;6.23;4.13;;;23.40;1.00;;;;;;4992311;28;20189;-51
2021/09/19 12:22:19;;;;;;;4.17;3.77;;;23.40;1.00;;;;;;4993984;28;20235;-51
2021/09/19 12:24:52;;;;;;;5.67;3.70;;;24.00;1.00;;;;;;4992636;28;20301;-51
2021/09/19 12:27:22;;;;;;;4.27;3.73;;;24.00;1.00;;;;;;4989889;28;20737;-51
2021/09/19 12:30:26;;;;;;;4.50;3.37;;;24.00;1.00;;;;;;4990923;28;20201;-51
2021/09/19 12:32:55;;;;;;;6.10;3.67;;;24.10;1.00;;;;;;4992115;28;20321;-51
2021/09/19 12:35:31;;;;;;;4.80;3.87;;;24.10;1.00;;;;;;5007055;28;20329;-51
2021/09/19 12:38:00;;;;;;;5.17;4.43;;;24.10;1.00;;;;;;4989958;28;20227;-51
2021/09/19 12:40:28;;;;;;;3.90;3.50;;;23.90;1.00;;;;;;4988692;28;20202;-51
2021/09/19 12:43:10;;;;;;;3.80;3.07;;;23.90;1.00;;;;;;4996738;28;20265;-51
2021/09/19 12:45:41;;;;;;;3.73;3.37;;;24.30;1.00;;;;;;4991847;28;20321;-51
2021/09/19 12:48:08;;;;;;;3.97;3.57;;;24.60;1.00;;;;;;4994695;28;20239;-51
2021/09/19 12:50:36;;;;;;;4.37;3.37;;;24.60;99.90;;;;;;4994241;28;20291;-51
2021/09/19 12:53:03;;;;;;;4.27;2.67;;;24.90;99.90;;;;;;4992766;28;20224;-51
2021/09/19 12:55:31;;;;;;;3.90;2.90;;;25.10;99.90;;;;;;5006891;28;20243;-51
2021/09/19 12:57:58;;;;;;;2.97;2.67;;;25.10;99.90;;;;;;4987224;28;20193;-51
2021/09/19 13:00:27;;;;;;;3.07;2.77;;;24.80;99.90;;;;;;4992868;28;20260;-51